sensor_id;sensor_type;location;lat;lon;timestamp;pressure;altitude;pressure_sealevel;temperature;humidity
10718;BME280;13513;42.700;23.124;2023-03-21T00:01:25;92780.83;;;11.72;53.50
10718;BME280;13513;42.700;23.124;2023-03-21T00:03:56;92706.60;;;11.13;54.48
10718;BME280;13513;42.700;23.124;2023-03-21T00:06:27;92773.26;;;11.52;55.61
10718;BME280;13513;42.700;23.124;2023-03-21T00:08:57;92766.55;;;11.39;56.04
10718;BME280;13513;42.700;23.124;2023-03-21T00:11:30;92763.91;;;11.39;56.61
10718;BME280;13513;42.700;23.124;2023-03-21T00:14:01;92767.06;;;11.39;56.89
10718;BME280;13513;42.700;23.124;2023-03-21T00:16:32;92763.66;;;11.41;55.98
10718;BME280;13513;42.700;23.124;2023-03-21T00:19:03;92761.02;;;11.43;55.91
10718;BME280;13513;42.700;23.124;2023-03-21T00:21:34;92757.55;;;11.38;56.96
10718;BME280;13513;42.700;23.124;2023-03-21T00:24:05;92764.73;;;11.42;57.02
10718;BME280;13513;42.700;23.124;2023-03-21T00:26:36;92765.25;;;11.44;56.44
10718;BME280;13513;42.700;23.124;2023-03-21T00:29:07;92767.61;;;11.38;56.43
10718;BME280;13513;42.700;23.124;2023-03-21T00:31:38;92764.97;;;11.38;55.98
10718;BME280;13513;42.700;23.124;2023-03-21T00:34:09;92762.81;;;11.33;55.99
10718;BME280;13513;42.700;23.124;2023-03-21T00:36:40;92764.64;;;11.30;56.20
10718;BME280;13513;42.700;23.124;2023-03-21T00:39:11;92760.57;;;11.17;56.42
10718;BME280;13513;42.700;23.124;2023-03-21T00:41:42;92763.41;;;11.06;57.17
10718;BME280;13513;42.700;23.124;2023-03-21T00:44:13;92757.56;;;11.04;57.55
10718;BME280;13513;42.700;23.124;2023-03-21T00:46:44;92756.20;;;10.99;58.18
10718;BME280;13513;42.700;23.124;2023-03-21T00:49:15;92760.66;;;10.96;58.50
10718;BME280;13513;42.700;23.124;2023-03-21T00:51:47;92759.06;;;10.92;58.84
10718;BME280;13513;42.700;23.124;2023-03-21T00:54:21;92751.84;;;10.83;59.59
10718;BME280;13513;42.700;23.124;2023-03-21T00:56:51;92750.95;;;10.70;60.23
10718;BME280;13513;42.700;23.124;2023-03-21T00:59:21;92751.91;;;10.59;59.85
10718;BME280;13513;42.700;23.124;2023-03-21T01:01:51;92745.66;;;10.43;61.22
10718;BME280;13513;42.700;23.124;2023-03-21T01:04:21;92744.91;;;10.45;61.83
10718;BME280;13513;42.700;23.124;2023-03-21T01:06:53;92746.42;;;10.39;62.13
10718;BME280;13513;42.700;23.124;2023-03-21T01:09:25;92741.77;;;10.24;63.33
10718;BME280;13513;42.700;23.124;2023-03-21T01:11:56;92743.94;;;10.30;61.73
10718;BME280;13513;42.700;23.124;2023-03-21T01:14:27;92738.88;;;10.26;63.00
10718;BME280;13513;42.700;23.124;2023-03-21T01:16:58;92744.38;;;10.22;63.21
10718;BME280;13513;42.700;23.124;2023-03-21T01:19:29;92743.98;;;10.35;63.04
10718;BME280;13513;42.700;23.124;2023-03-21T01:21:59;92743.56;;;10.43;62.80
10718;BME280;13513;42.700;23.124;2023-03-21T01:24:31;92740.88;;;10.40;62.53
10718;BME280;13513;42.700;23.124;2023-03-21T01:27:01;92738.37;;;10.26;63.88
10718;BME280;13513;42.700;23.124;2023-03-21T01:29:33;92748.53;;;10.39;64.18
10718;BME280;13513;42.700;23.124;2023-03-21T01:32:04;92750.25;;;10.26;64.36
10718;BME280;13513;42.700;23.124;2023-03-21T01:34:34;92740.88;;;10.40;63.83
10718;BME280;13513;42.700;23.124;2023-03-21T01:37:05;92740.07;;;10.37;63.48
10718;BME280;13513;42.700;23.124;2023-03-21T01:39:36;92732.68;;;10.39;62.93
10718;BME280;13513;42.700;23.124;2023-03-21T01:42:09;92733.30;;;10.49;62.28
10718;BME280;13513;42.700;23.124;2023-03-21T01:45:00;92735.41;;;10.47;62.76
10718;BME280;13513;42.700;23.124;2023-03-21T01:47:31;92737.36;;;10.32;63.81
10718;BME280;13513;42.700;23.124;2023-03-21T01:50:03;92739.13;;;10.24;64.78
10718;BME280;13513;42.700;23.124;2023-03-21T01:52:35;92734.19;;;10.30;64.16
10718;BME280;13513;42.700;23.124;2023-03-21T01:55:08;92739.84;;;10.17;65.37
10718;BME280;13513;42.700;23.124;2023-03-21T01:57:42;92737.56;;;10.04;66.17
10718;BME280;13513;42.700;23.124;2023-03-21T02:00:12;92728.85;;;9.82;67.63
10718;BME280;13513;42.700;23.124;2023-03-21T02:02:44;92731.35;;;9.91;65.24
10718;BME280;13513;42.700;23.124;2023-03-21T02:05:28;92733.45;;;9.92;64.29
10718;BME280;13513;42.700;23.124;2023-03-21T02:07:53;92734.97;;;9.85;65.85
10718;BME280;13513;42.700;23.124;2023-03-21T02:10:24;92738.20;;;9.68;66.94
10718;BME280;13513;42.700;23.124;2023-03-21T02:13:03;92726.47;;;9.40;69.87
10718;BME280;13513;42.700;23.124;2023-03-21T02:15:39;92722.36;;;9.28;70.82
10718;BME280;13513;42.700;23.124;2023-03-21T02:18:31;92713.91;;;9.28;70.71
10718;BME280;13513;42.700;23.124;2023-03-21T02:21:37;92716.31;;;9.30;70.92
10718;BME280;13513;42.700;23.124;2023-03-21T02:27:14;92717.83;;;9.07;73.04
10718;BME280;13513;42.700;23.124;2023-03-21T02:33:00;92726.31;;;9.09;73.23
10718;BME280;13513;42.700;23.124;2023-03-21T02:38:40;92723.47;;;9.13;73.03
10718;BME280;13513;42.700;23.124;2023-03-21T02:41:15;92721.00;;;9.06;72.95
10718;BME280;13513;42.700;23.124;2023-03-21T02:43:55;92714.48;;;9.11;72.59
10718;BME280;13513;42.700;23.124;2023-03-21T02:46:34;92710.06;;;8.98;73.26
10718;BME280;13513;42.700;23.124;2023-03-21T02:49:11;92709.03;;;8.82;74.56
10718;BME280;13513;42.700;23.124;2023-03-21T02:51:39;92718.34;;;8.87;74.85
10718;BME280;13513;42.700;23.124;2023-03-21T02:54:17;92716.15;;;8.98;73.72
10718;BME280;13513;42.700;23.124;2023-03-21T02:56:48;92715.13;;;9.02;73.90
10718;BME280;13513;42.700;23.124;2023-03-21T02:59:21;92718.52;;;9.00;74.43
10718;BME280;13513;42.700;23.124;2023-03-21T03:01:53;92720.67;;;9.03;74.57
10718;BME280;13513;42.700;23.124;2023-03-21T03:04:27;92722.63;;;9.10;73.90
10718;BME280;13513;42.700;23.124;2023-03-21T03:07:28;92718.67;;;9.10;73.79
10718;BME280;13513;42.700;23.124;2023-03-21T03:12:59;92722.66;;;9.12;73.58
10718;BME280;13513;42.700;23.124;2023-03-21T03:15:47;92723.47;;;9.13;73.24
10718;BME280;13513;42.700;23.124;2023-03-21T03:18:20;92722.89;;;9.11;73.71
10718;BME280;13513;42.700;23.124;2023-03-21T03:21:16;92725.33;;;9.15;73.70
10718;BME280;13513;42.700;23.124;2023-03-21T03:24:02;92725.14;;;9.21;73.00
10718;BME280;13513;42.700;23.124;2023-03-21T03:26:40;92724.13;;;9.22;73.33
10718;BME280;13513;42.700;23.124;2023-03-21T03:29:12;92723.35;;;9.24;73.53
10718;BME280;13513;42.700;23.124;2023-03-21T03:31:47;92723.77;;;9.16;74.35
10718;BME280;13513;42.700;23.124;2023-03-21T03:34:19;92724.18;;;9.08;75.27
10718;BME280;13513;42.700;23.124;2023-03-21T03:36:51;92729.86;;;9.00;76.04
10718;BME280;13513;42.700;23.124;2023-03-21T03:39:40;92725.03;;;8.95;76.38
10718;BME280;13513;42.700;23.124;2023-03-21T03:42:08;92719.22;;;8.76;77.77
10718;BME280;13513;42.700;23.124;2023-03-21T03:44:37;92719.33;;;8.67;78.58
10718;BME280;13513;42.700;23.124;2023-03-21T03:47:29;92721.80;;;8.90;76.74
10718;BME280;13513;42.700;23.124;2023-03-21T03:49:52;92719.29;;;8.98;75.10
10718;BME280;13513;42.700;23.124;2023-03-21T03:52:28;92718.78;;;8.98;74.52
10718;BME280;13513;42.700;23.124;2023-03-21T03:54:58;92718.24;;;8.99;74.63
10718;BME280;13513;42.700;23.124;2023-03-21T03:57:29;92713.75;;;8.97;74.48
10718;BME280;13513;42.700;23.124;2023-03-21T04:00:00;92715.37;;;8.84;75.93
10718;BME280;13513;42.700;23.124;2023-03-21T04:02:30;92713.31;;;8.86;75.90
10718;BME280;13513;42.700;23.124;2023-03-21T04:05:01;92711.45;;;8.86;76.13
10718;BME280;13513;42.700;23.124;2023-03-21T04:07:32;92716.93;;;8.82;75.73
10718;BME280;13513;42.700;23.124;2023-03-21T04:10:03;92712.10;;;8.77;75.87
10718;BME280;13513;42.700;23.124;2023-03-21T04:12:34;92705.14;;;8.68;75.76
10718;BME280;13513;42.700;23.124;2023-03-21T04:15:08;92704.66;;;8.55;77.00
10718;BME280;13513;42.700;23.124;2023-03-21T04:17:39;92701.99;;;8.52;77.41
10718;BME280;13513;42.700;23.124;2023-03-21T04:20:11;92700.23;;;8.41;77.83
10718;BME280;13513;42.700;23.124;2023-03-21T04:22:41;92696.48;;;8.37;78.73
10718;BME280;13513;42.700;23.124;2023-03-21T04:25:11;92702.97;;;8.49;78.18
10718;BME280;13513;42.700;23.124;2023-03-21T04:27:42;92702.71;;;8.64;77.37
10718;BME280;13513;42.700;23.124;2023-03-21T04:30:14;92702.91;;;8.60;77.50
10718;BME280;13513;42.700;23.124;2023-03-21T04:32:47;92707.46;;;8.48;77.69
10718;BME280;13513;42.700;23.124;2023-03-21T04:35:18;92702.89;;;8.44;77.94
10718;BME280;13513;42.700;23.124;2023-03-21T04:37:49;92704.22;;;8.44;78.27
10718;BME280;13513;42.700;23.124;2023-03-21T04:40:19;92711.44;;;8.51;78.14
10718;BME280;13513;42.700;23.124;2023-03-21T04:42:49;92713.72;;;8.61;77.57
10718;BME280;13513;42.700;23.124;2023-03-21T04:45:20;92712.70;;;8.65;76.93
10718;BME280;13513;42.700;23.124;2023-03-21T04:47:51;92708.69;;;8.76;76.19
10718;BME280;13513;42.700;23.124;2023-03-21T04:50:22;92709.84;;;8.83;76.36
10718;BME280;13513;42.700;23.124;2023-03-21T04:52:53;92704.09;;;8.86;76.48
10718;BME280;13513;42.700;23.124;2023-03-21T04:55:24;92714.50;;;8.95;76.09
10718;BME280;13513;42.700;23.124;2023-03-21T04:57:55;92711.27;;;9.09;75.10
10718;BME280;13513;42.700;23.124;2023-03-21T05:00:26;92717.72;;;9.16;75.36
10718;BME280;13513;42.700;23.124;2023-03-21T05:02:56;92717.08;;;9.09;75.63
10718;BME280;13513;42.700;23.124;2023-03-21T05:05:28;92719.42;;;9.08;76.49
10718;BME280;13513;42.700;23.124;2023-03-21T05:07:58;92718.02;;;9.19;76.30
10718;BME280;13513;42.700;23.124;2023-03-21T05:10:29;92718.29;;;9.20;75.81
10718;BME280;13513;42.700;23.124;2023-03-21T05:13:00;92720.35;;;9.16;76.26
10718;BME280;13513;42.700;23.124;2023-03-21T05:15:31;92718.38;;;9.25;76.33
10718;BME280;13513;42.700;23.124;2023-03-21T05:18:02;92724.82;;;9.34;75.52
10718;BME280;13513;42.700;23.124;2023-03-21T05:20:33;92720.83;;;9.51;74.91
10718;BME280;13513;42.700;23.124;2023-03-21T05:23:04;92715.31;;;9.52;74.30
10718;BME280;13513;42.700;23.124;2023-03-21T05:25:36;92717.98;;;9.55;74.60
10718;BME280;13513;42.700;23.124;2023-03-21T05:28:07;92712.59;;;9.69;74.14
10718;BME280;13513;42.700;23.124;2023-03-21T05:30:38;92713.83;;;9.83;73.81
10718;BME280;13513;42.700;23.124;2023-03-21T05:33:08;92721.90;;;9.95;73.16
10718;BME280;13513;42.700;23.124;2023-03-21T05:35:39;92719.59;;;10.04;72.05
10718;BME280;13513;42.700;23.124;2023-03-21T05:38:11;92720.86;;;10.20;70.34
10718;BME280;13513;42.700;23.124;2023-03-21T05:40:45;92719.34;;;10.27;70.29
10718;BME280;13513;42.700;23.124;2023-03-21T05:43:16;92716.89;;;10.18;70.56
10718;BME280;13513;42.700;23.124;2023-03-21T05:45:46;92711.57;;;10.42;69.49
10718;BME280;13513;42.700;23.124;2023-03-21T05:48:17;92708.79;;;10.53;68.79
10718;BME280;13513;42.700;23.124;2023-03-21T05:50:48;92710.66;;;10.58;68.37
10718;BME280;13513;42.700;23.124;2023-03-21T05:53:19;92707.59;;;10.66;66.95
10718;BME280;13513;42.700;23.124;2023-03-21T05:55:50;92705.24;;;10.72;66.96
10718;BME280;13513;42.700;23.124;2023-03-21T05:58:20;92706.11;;;10.82;66.12
10718;BME280;13513;42.700;23.124;2023-03-21T06:00:51;92700.55;;;11.15;65.29
10718;BME280;13513;42.700;23.124;2023-03-21T06:03:23;92705.55;;;11.56;62.48
10718;BME280;13513;42.700;23.124;2023-03-21T06:05:54;92705.72;;;11.83;60.46
10718;BME280;13513;42.700;23.124;2023-03-21T06:08:25;92705.53;;;12.07;58.60
10718;BME280;13513;42.700;23.124;2023-03-21T06:10:56;92701.41;;;12.57;57.01
10718;BME280;13513;42.700;23.124;2023-03-21T06:13:27;92701.42;;;12.77;56.14
10718;BME280;13513;42.700;23.124;2023-03-21T06:15:57;92697.73;;;13.00;54.98
10718;BME280;13513;42.700;23.124;2023-03-21T06:18:28;92696.40;;;13.13;53.80
10718;BME280;13513;42.700;23.124;2023-03-21T06:20:59;92693.98;;;13.39;58.49
10718;BME280;13513;42.700;23.124;2023-03-21T06:23:30;92691.55;;;13.65;55.92
10718;BME280;13513;42.700;23.124;2023-03-21T06:26:00;92694.20;;;13.65;52.99
10718;BME280;13513;42.700;23.124;2023-03-21T06:28:31;92685.63;;;13.83;54.75
10718;BME280;13513;42.700;23.124;2023-03-21T06:31:02;92691.39;;;14.05;53.72
10718;BME280;13513;42.700;23.124;2023-03-21T06:33:33;92689.70;;;14.29;52.83
10718;BME280;13513;42.700;23.124;2023-03-21T06:36:04;92692.53;;;14.45;48.93
10718;BME280;13513;42.700;23.124;2023-03-21T06:38:35;92691.67;;;14.54;48.14
10718;BME280;13513;42.700;23.124;2023-03-21T06:41:06;92691.80;;;14.34;48.58
10718;BME280;13513;42.700;23.124;2023-03-21T06:43:37;92692.13;;;14.66;49.89
10718;BME280;13513;42.700;23.124;2023-03-21T06:46:09;92694.26;;;14.67;47.11
10718;BME280;13513;42.700;23.124;2023-03-21T06:48:39;92696.73;;;14.53;45.47
10718;BME280;13513;42.700;23.124;2023-03-21T06:51:15;92702.59;;;14.50;45.48
10718;BME280;13513;42.700;23.124;2023-03-21T06:53:48;92701.66;;;14.29;46.54
10718;BME280;13513;42.700;23.124;2023-03-21T06:56:19;92706.18;;;14.26;45.79
10718;BME280;13513;42.700;23.124;2023-03-21T06:58:49;92700.59;;;14.27;46.57
10718;BME280;13513;42.700;23.124;2023-03-21T07:01:20;92699.77;;;14.34;45.79
10718;BME280;13513;42.700;23.124;2023-03-21T07:03:51;92699.77;;;14.34;45.96
10718;BME280;13513;42.700;23.124;2023-03-21T07:06:24;92695.83;;;14.19;46.38
10718;BME280;13513;42.700;23.124;2023-03-21T07:08:55;92698.83;;;14.05;46.88
10718;BME280;13513;42.700;23.124;2023-03-21T07:11:25;92704.36;;;14.21;45.64
10718;BME280;13513;42.700;23.124;2023-03-21T07:13:56;92702.48;;;14.27;46.05
10718;BME280;13513;42.700;23.124;2023-03-21T07:16:27;92704.28;;;14.34;45.23
10718;BME280;13513;42.700;23.124;2023-03-21T07:18:58;92701.09;;;14.34;45.75
10718;BME280;13513;42.700;23.124;2023-03-21T07:21:30;92706.72;;;14.28;45.73
10718;BME280;13513;42.700;23.124;2023-03-21T07:24:00;92704.81;;;14.36;46.13
10718;BME280;13513;42.700;23.124;2023-03-21T07:26:31;92701.70;;;14.19;46.94
10718;BME280;13513;42.700;23.124;2023-03-21T07:29:02;92701.13;;;14.29;47.39
10718;BME280;13513;42.700;23.124;2023-03-21T07:31:34;92699.46;;;14.41;46.71
10718;BME280;13513;42.700;23.124;2023-03-21T07:34:04;92707.52;;;14.72;46.68
10718;BME280;13513;42.700;23.124;2023-03-21T07:36:35;92711.11;;;14.91;45.42
10718;BME280;13513;42.700;23.124;2023-03-21T07:39:06;92712.67;;;14.97;44.74
10718;BME280;13513;42.700;23.124;2023-03-21T07:41:37;92715.31;;;14.99;45.25
10718;BME280;13513;42.700;23.124;2023-03-21T07:44:08;92710.45;;;15.09;45.01
10718;BME280;13513;42.700;23.124;2023-03-21T07:46:39;92709.24;;;15.25;44.68
10718;BME280;13513;42.700;23.124;2023-03-21T07:49:10;92714.86;;;15.54;45.09
10718;BME280;13513;42.700;23.124;2023-03-21T07:51:41;92711.15;;;15.79;44.17
10718;BME280;13513;42.700;23.124;2023-03-21T07:54:13;92713.00;;;16.04;43.93
10718;BME280;13513;42.700;23.124;2023-03-21T07:56:44;92709.77;;;16.31;44.18
10718;BME280;13513;42.700;23.124;2023-03-21T07:59:15;92707.83;;;16.37;43.80
10718;BME280;13513;42.700;23.124;2023-03-21T08:01:46;92705.56;;;16.49;41.98
10718;BME280;13513;42.700;23.124;2023-03-21T08:04:17;92711.35;;;16.53;43.03
10718;BME280;13513;42.700;23.124;2023-03-21T08:06:50;92707.95;;;16.69;42.23
10718;BME280;13513;42.700;23.124;2023-03-21T08:09:21;92711.73;;;16.23;43.46
10718;BME280;13513;42.700;23.124;2023-03-21T08:11:51;92701.73;;;16.34;42.55
10718;BME280;13513;42.700;23.124;2023-03-21T08:14:22;92700.47;;;16.29;41.93
10718;BME280;13513;42.700;23.124;2023-03-21T08:16:53;92708.36;;;15.91;43.10
10718;BME280;13513;42.700;23.124;2023-03-21T08:19:23;92708.16;;;16.09;43.71
10718;BME280;13513;42.700;23.124;2023-03-21T08:21:54;92713.03;;;16.26;42.43
10718;BME280;13513;42.700;23.124;2023-03-21T08:24:27;92707.16;;;15.79;42.50
10718;BME280;13513;42.700;23.124;2023-03-21T08:26:56;92707.28;;;15.66;43.58
10718;BME280;13513;42.700;23.124;2023-03-21T08:29:27;92698.19;;;15.44;44.04
10718;BME280;13513;42.700;23.124;2023-03-21T08:31:59;92698.19;;;15.44;44.18
10718;BME280;13513;42.700;23.124;2023-03-21T08:34:28;92694.41;;;15.47;45.59
10718;BME280;13513;42.700;23.124;2023-03-21T08:37:00;92697.27;;;15.56;44.89
10718;BME280;13513;42.700;23.124;2023-03-21T08:39:31;92699.13;;;15.58;45.13
10718;BME280;13513;42.700;23.124;2023-03-21T08:42:03;92697.38;;;15.46;44.83
10718;BME280;13513;42.700;23.124;2023-03-21T08:44:34;92703.21;;;15.48;44.18
10718;BME280;13513;42.700;23.124;2023-03-21T08:47:05;92697.27;;;15.56;44.99
10718;BME280;13513;42.700;23.124;2023-03-21T08:49:36;92696.11;;;15.05;45.31
10718;BME280;13513;42.700;23.124;2023-03-21T08:52:07;92701.55;;;14.90;45.66
10718;BME280;13513;42.700;23.124;2023-03-21T08:54:38;92699.39;;;14.94;46.19
10718;BME280;13513;42.700;23.124;2023-03-21T08:57:08;92699.73;;;14.83;46.66
10718;BME280;13513;42.700;23.124;2023-03-21T08:59:39;92694.50;;;14.73;46.83
10718;BME280;13513;42.700;23.124;2023-03-21T09:02:13;92692.73;;;14.56;48.93
10718;BME280;13513;42.700;23.124;2023-03-21T09:04:44;92698.27;;;14.64;48.06
10718;BME280;13513;42.700;23.124;2023-03-21T09:07:15;92694.98;;;14.34;48.39
10718;BME280;13513;42.700;23.124;2023-03-21T09:09:45;92692.50;;;14.52;48.92
10718;BME280;13513;42.700;23.124;2023-03-21T09:12:17;92685.00;;;14.57;49.14
10718;BME280;13513;42.700;23.124;2023-03-21T09:14:49;92692.52;;;14.50;49.71
10718;BME280;13513;42.700;23.124;2023-03-21T09:17:20;92683.28;;;14.37;51.37
10718;BME280;13513;42.700;23.124;2023-03-21T09:19:50;92675.02;;;14.82;49.30
10718;BME280;13513;42.700;23.124;2023-03-21T09:22:21;92671.57;;;14.79;50.17
10718;BME280;13513;42.700;23.124;2023-03-21T09:24:53;92666.16;;;15.20;48.99
10718;BME280;13513;42.700;23.124;2023-03-21T09:27:23;92664.88;;;15.46;48.28
10718;BME280;13513;42.700;23.124;2023-03-21T09:29:54;92665.06;;;15.55;47.04
10718;BME280;13513;42.700;23.124;2023-03-21T09:32:25;92663.66;;;15.86;46.69
10718;BME280;13513;42.700;23.124;2023-03-21T09:34:56;92665.95;;;15.71;47.30
10718;BME280;13513;42.700;23.124;2023-03-21T09:37:27;92665.33;;;15.79;47.05
10718;BME280;13513;42.700;23.124;2023-03-21T09:39:58;92655.74;;;15.55;45.37
10718;BME280;13513;42.700;23.124;2023-03-21T09:45:03;92659.70;;;15.57;45.39
10718;BME280;13513;42.700;23.124;2023-03-21T09:47:37;92662.52;;;15.42;45.43
10718;BME280;13513;42.700;23.124;2023-03-21T09:50:15;92656.67;;;15.66;44.09
10718;BME280;13513;42.700;23.124;2023-03-21T09:52:54;92642.19;;;15.98;42.40
10718;BME280;13513;42.700;23.124;2023-03-21T09:55:29;92641.98;;;15.92;42.78
10718;BME280;13513;42.700;23.124;2023-03-21T10:00:48;92638.48;;;15.97;43.49
10718;BME280;13513;42.700;23.124;2023-03-21T10:03:29;92634.73;;;16.19;43.07
10718;BME280;13513;42.700;23.124;2023-03-21T10:06:08;92627.23;;;17.25;42.65
10718;BME280;13513;42.700;23.124;2023-03-21T10:08:34;92622.02;;;19.34;37.14
10718;BME280;13513;42.700;23.124;2023-03-21T10:11:15;92624.41;;;20.06;34.92
10718;BME280;13513;42.700;23.124;2023-03-21T10:14:12;92619.08;;;21.04;35.67
10718;BME280;13513;42.700;23.124;2023-03-21T10:16:26;92617.42;;;21.54;34.40
10718;BME280;13513;42.700;23.124;2023-03-21T10:18:56;92617.87;;;21.65;33.63
10718;BME280;13513;42.700;23.124;2023-03-21T10:21:28;92622.17;;;20.38;35.11
10718;BME280;13513;42.700;23.124;2023-03-21T10:24:00;92621.55;;;20.02;36.00
10718;BME280;13513;42.700;23.124;2023-03-21T10:26:31;92615.13;;;20.31;35.75
10718;BME280;13513;42.700;23.124;2023-03-21T10:29:02;92614.11;;;19.40;36.04
10718;BME280;13513;42.700;23.124;2023-03-21T10:31:33;92620.33;;;18.59;37.47
10718;BME280;13513;42.700;23.124;2023-03-21T10:34:08;92612.59;;;18.35;38.80
10718;BME280;13513;42.700;23.124;2023-03-21T10:36:36;92616.41;;;18.43;37.90
10718;BME280;13513;42.700;23.124;2023-03-21T10:39:13;92623.02;;;18.34;37.97
10718;BME280;13513;42.700;23.124;2023-03-21T10:41:39;92576.46;;;17.97;37.26
10718;BME280;13513;42.700;23.124;2023-03-21T10:44:17;92631.95;;;18.16;37.84
10718;BME280;13513;42.700;23.124;2023-03-21T10:46:54;92630.03;;;18.30;36.62
10718;BME280;13513;42.700;23.124;2023-03-21T10:49:25;92632.00;;;18.14;38.61
10718;BME280;13513;42.700;23.124;2023-03-21T10:51:57;92623.64;;;18.29;37.78
10718;BME280;13513;42.700;23.124;2023-03-21T10:54:32;92617.52;;;18.28;37.75
10718;BME280;13513;42.700;23.124;2023-03-21T10:57:14;92608.50;;;18.62;37.08
10718;BME280;13513;42.700;23.124;2023-03-21T10:59:42;92605.13;;;18.32;37.23
10718;BME280;13513;42.700;23.124;2023-03-21T11:02:29;92613.27;;;18.52;37.58
10718;BME280;13513;42.700;23.124;2023-03-21T11:04:48;92610.04;;;18.99;36.68
10718;BME280;13513;42.700;23.124;2023-03-21T11:07:19;92608.23;;;19.49;36.34
10718;BME280;13513;42.700;23.124;2023-03-21T11:09:56;92606.42;;;19.67;36.39
10718;BME280;13513;42.700;23.124;2023-03-21T11:12:37;92599.55;;;19.33;35.74
10718;BME280;13513;42.700;23.124;2023-03-21T11:15:31;92600.59;;;19.23;36.28
10718;BME280;13513;42.700;23.124;2023-03-21T11:18:17;92601.33;;;19.26;34.91
10718;BME280;13513;42.700;23.124;2023-03-21T11:20:56;92595.08;;;18.87;35.87
10718;BME280;13513;42.700;23.124;2023-03-21T11:23:28;92590.89;;;18.23;38.21
10718;BME280;13513;42.700;23.124;2023-03-21T11:26:00;92586.19;;;18.42;37.57
10718;BME280;13513;42.700;23.124;2023-03-21T11:28:36;92581.88;;;18.44;37.98
10718;BME280;13513;42.700;23.124;2023-03-21T11:31:09;92573.77;;;18.60;38.05
10718;BME280;13513;42.700;23.124;2023-03-21T11:33:43;92573.20;;;19.26;36.29
10718;BME280;13513;42.700;23.124;2023-03-21T11:36:25;92571.47;;;19.19;36.93
10718;BME280;13513;42.700;23.124;2023-03-21T11:39:12;92571.16;;;19.21;36.33
10718;BME280;13513;42.700;23.124;2023-03-21T11:41:32;92569.18;;;19.26;36.01
10718;BME280;13513;42.700;23.124;2023-03-21T11:44:02;92555.41;;;19.61;35.80
10718;BME280;13513;42.700;23.124;2023-03-21T11:46:38;92568.31;;;20.07;35.64
10718;BME280;13513;42.700;23.124;2023-03-21T11:49:07;92560.05;;;19.86;35.46
10718;BME280;13513;42.700;23.124;2023-03-21T11:51:49;92561.11;;;18.74;35.80
10718;BME280;13513;42.700;23.124;2023-03-21T11:54:39;92561.55;;;18.18;37.69
10718;BME280;13513;42.700;23.124;2023-03-21T12:00:02;92549.06;;;18.41;38.83
10718;BME280;13513;42.700;23.124;2023-03-21T12:05:36;92543.66;;;18.54;38.24
10718;BME280;13513;42.700;23.124;2023-03-21T12:11:13;92535.17;;;18.83;38.11
10718;BME280;13513;42.700;23.124;2023-03-21T12:25:44;92524.22;;;17.64;37.00
10718;BME280;13513;42.700;23.124;2023-03-21T12:31:24;92516.19;;;17.37;37.75
10718;BME280;13513;42.700;23.124;2023-03-21T12:36:52;92510.42;;;17.84;38.19
10718;BME280;13513;42.700;23.124;2023-03-21T12:39:29;92508.11;;;17.80;38.69
10718;BME280;13513;42.700;23.124;2023-03-21T12:42:29;92507.48;;;17.72;38.41
10718;BME280;13513;42.700;23.124;2023-03-21T12:45:10;92510.73;;;17.58;37.97
10718;BME280;13513;42.700;23.124;2023-03-21T12:47:42;92506.55;;;17.66;38.04
10718;BME280;13513;42.700;23.124;2023-03-21T12:50:25;92508.77;;;17.61;37.94
10718;BME280;13513;42.700;23.124;2023-03-21T12:53:00;92508.00;;;17.61;37.42
10718;BME280;13513;42.700;23.124;2023-03-21T12:55:32;92504.92;;;17.67;36.79
10718;BME280;13513;42.700;23.124;2023-03-21T12:58:10;92501.03;;;17.62;38.14
10718;BME280;13513;42.700;23.124;2023-03-21T13:00:46;92491.55;;;17.40;38.04
10718;BME280;13513;42.700;23.124;2023-03-21T13:03:17;92501.59;;;17.19;36.68
10718;BME280;13513;42.700;23.124;2023-03-21T13:05:59;92494.92;;;17.19;35.05
10718;BME280;13513;42.700;23.124;2023-03-21T13:09:01;92488.95;;;17.24;35.96
10718;BME280;13513;42.700;23.124;2023-03-21T13:11:31;92482.67;;;17.31;35.86
10718;BME280;13513;42.700;23.124;2023-03-21T13:14:27;92484.98;;;17.35;36.94
10718;BME280;13513;42.700;23.124;2023-03-21T13:16:51;92476.92;;;17.11;36.32
10718;BME280;13513;42.700;23.124;2023-03-21T13:19:46;92482.05;;;17.07;36.87
10718;BME280;13513;42.700;23.124;2023-03-21T13:24:50;92485.75;;;16.66;36.78
10718;BME280;13513;42.700;23.124;2023-03-21T13:27:31;92477.41;;;16.70;37.86
10718;BME280;13513;42.700;23.124;2023-03-21T13:32:54;92473.05;;;16.60;38.58
10718;BME280;13513;42.700;23.124;2023-03-21T13:35:35;92477.56;;;16.62;37.72
10718;BME280;13513;42.700;23.124;2023-03-21T13:38:09;92463.66;;;16.63;38.44
10718;BME280;13513;42.700;23.124;2023-03-21T13:40:56;92469.55;;;16.62;37.90
10718;BME280;13513;42.700;23.124;2023-03-21T13:51:51;92454.63;;;16.45;38.05
10718;BME280;13513;42.700;23.124;2023-03-21T13:54:47;92456.97;;;16.49;38.68
10718;BME280;13513;42.700;23.124;2023-03-21T14:00:26;92458.57;;;16.50;38.51
10718;BME280;13513;42.700;23.124;2023-03-21T14:03:12;92451.80;;;16.55;38.90
10718;BME280;13513;42.700;23.124;2023-03-21T14:05:39;92449.01;;;16.47;38.33
10718;BME280;13513;42.700;23.124;2023-03-21T14:08:14;92449.91;;;16.24;39.07
10718;BME280;13513;42.700;23.124;2023-03-21T14:10:44;92446.97;;;16.41;39.13
10718;BME280;13513;42.700;23.124;2023-03-21T14:13:20;92444.19;;;16.49;38.90
10718;BME280;13513;42.700;23.124;2023-03-21T14:15:59;92443.14;;;16.47;39.47
10718;BME280;13513;42.700;23.124;2023-03-21T14:18:27;92442.19;;;16.38;39.50
10718;BME280;13513;42.700;23.124;2023-03-21T14:20:58;92442.53;;;16.18;39.93
10718;BME280;13513;42.700;23.124;2023-03-21T14:23:29;92437.11;;;16.07;40.06
10718;BME280;13513;42.700;23.124;2023-03-21T14:26:01;92443.95;;;15.97;39.42